createdAt,value
2023-04-27T00:00:00.027Z,3.85
2023-04-27T00:00:13.453Z,3.92
2023-04-27T00:00:25.739Z,4.00
2023-04-27T00:00:37.709Z,4.20
2023-04-27T00:00:49.917Z,4.15
2023-04-27T00:01:06.356Z,4.32
2023-04-27T00:01:18.308Z,3.97
2023-04-27T00:01:31.085Z,3.90
2023-04-27T00:01:43.021Z,4.00
2023-04-27T00:01:55.571Z,3.92
2023-04-27T00:02:07.878Z,3.92
2023-04-27T00:02:20.592Z,3.95
2023-04-27T00:02:32.817Z,4.00
2023-04-27T00:02:44.989Z,3.97
2023-04-27T00:02:57.728Z,3.97
2023-04-27T00:03:10.427Z,3.90
2023-04-27T00:03:23.496Z,3.72
2023-04-27T00:03:35.808Z,3.88
2023-04-27T00:03:48.012Z,4.00
2023-04-27T00:04:00.456Z,3.90
2023-04-27T00:04:14.366Z,3.88
2023-04-27T00:04:26.754Z,3.90
2023-04-27T00:04:39.120Z,4.00
2023-04-27T00:04:51.859Z,4.18
2023-04-27T00:05:05.232Z,4.00
2023-04-27T00:05:17.797Z,3.70
2023-04-27T00:05:29.864Z,3.78
2023-04-27T00:05:42.528Z,4.00
2023-04-27T00:05:54.621Z,3.95
2023-04-27T00:06:07.525Z,3.85
2023-04-27T00:06:19.546Z,3.90
2023-04-27T00:06:32.721Z,4.00
2023-04-27T00:06:44.638Z,3.95
2023-04-27T00:06:56.730Z,3.88
2023-04-27T00:07:09.071Z,4.10
2023-04-27T00:07:21.508Z,4.35
2023-04-27T00:07:33.431Z,4.38
2023-04-27T00:07:45.832Z,3.95
2023-04-27T00:07:57.750Z,3.90
2023-04-27T00:08:09.819Z,3.90
2023-04-27T00:08:21.767Z,4.10
2023-04-27T00:08:33.935Z,4.15
2023-04-27T00:08:45.869Z,3.97
2023-04-27T00:08:57.842Z,3.80
2023-04-27T00:09:09.757Z,3.97
2023-04-27T00:09:21.864Z,4.07
2023-04-27T00:09:33.801Z,4.05
2023-04-27T00:09:45.672Z,3.90
2023-04-27T00:09:57.826Z,3.97
2023-04-27T00:10:10.404Z,3.92
2023-04-27T00:10:22.286Z,3.90
2023-04-27T00:10:34.609Z,3.88
2023-04-27T00:10:46.557Z,3.85
2023-04-27T00:10:58.698Z,3.83
2023-04-27T00:11:10.719Z,3.55
2023-04-27T00:11:22.687Z,3.38
2023-04-27T00:11:34.731Z,3.80
2023-04-27T00:11:46.694Z,4.05
2023-04-27T00:11:58.593Z,3.92
2023-04-27T00:12:10.481Z,4.03
2023-04-27T00:12:22.405Z,4.03
2023-04-27T00:12:34.497Z,3.95
2023-04-27T00:12:46.488Z,3.90
2023-04-27T00:12:58.488Z,3.92
2023-04-27T00:13:10.473Z,3.90
2023-04-27T00:13:22.507Z,4.07
2023-04-27T00:13:34.484Z,4.03
2023-04-27T00:13:46.379Z,3.90
2023-04-27T00:13:58.431Z,3.85
2023-04-27T00:14:10.345Z,3.88
2023-04-27T00:14:22.509Z,4.03
2023-04-27T00:14:34.536Z,3.90
2023-04-27T00:14:46.597Z,3.83
2023-04-27T00:14:58.505Z,3.78
2023-04-27T00:15:11.163Z,3.80
2023-04-27T00:15:23.051Z,4.00
2023-04-27T00:15:34.958Z,3.80
2023-04-27T00:15:46.901Z,3.50
2023-04-27T00:16:01.266Z,3.50
2023-04-27T00:16:13.330Z,4.05
2023-04-27T00:16:25.576Z,4.10
2023-04-27T00:16:37.686Z,3.88
2023-04-27T00:16:49.736Z,3.80
2023-04-27T00:17:01.680Z,4.00
2023-04-27T00:17:13.597Z,4.00
2023-04-27T00:17:25.759Z,3.83
2023-04-27T00:17:38.328Z,3.90
2023-04-27T00:17:50.405Z,3.85
2023-04-27T00:18:02.438Z,3.80
2023-04-27T00:18:14.610Z,3.97
2023-04-27T00:18:26.495Z,3.90
2023-04-27T00:18:38.437Z,3.60
2023-04-27T00:18:50.356Z,3.83
2023-04-27T00:19:02.353Z,4.05
2023-04-27T00:19:15.377Z,3.90
2023-04-27T00:19:28.433Z,3.90
2023-04-27T00:19:41.778Z,4.00
2023-04-27T00:19:54.495Z,3.80
2023-04-27T00:20:08.845Z,3.80
2023-04-27T00:20:20.765Z,3.85
2023-04-27T00:20:33.815Z,3.70
2023-04-27T00:20:45.743Z,3.80
2023-04-27T00:20:58.115Z,4.00
2023-04-27T00:21:10.000Z,3.72
2023-04-27T00:21:21.904Z,3.67
2023-04-27T00:21:33.900Z,3.90
2023-04-27T00:21:45.782Z,3.90
2023-04-27T00:21:58.007Z,3.75
2023-04-27T00:22:09.945Z,3.60
2023-04-27T00:22:22.265Z,3.70
2023-04-27T00:22:34.189Z,3.65
2023-04-27T00:22:46.433Z,3.50
2023-04-27T00:22:58.364Z,3.60
2023-04-27T00:23:10.838Z,3.40
2023-04-27T00:23:22.775Z,3.28
2023-04-27T00:23:35.114Z,3.35
2023-04-27T00:23:47.196Z,3.50
2023-04-27T00:23:59.074Z,3.50
2023-04-27T00:24:11.052Z,3.53
2023-04-27T00:24:23.097Z,3.53
2023-04-27T00:24:35.028Z,3.80
2023-04-27T00:24:46.976Z,3.80
2023-04-27T00:24:58.912Z,3.80
2023-04-27T00:25:11.725Z,3.80
2023-04-27T00:25:23.669Z,3.70
2023-04-27T00:25:35.622Z,3.67
2023-04-27T00:25:47.486Z,3.65
2023-04-27T00:25:59.406Z,3.70
2023-04-27T00:26:11.513Z,3.67
2023-04-27T00:26:23.577Z,3.75
2023-04-27T00:26:35.503Z,3.95
2023-04-27T00:26:47.478Z,4.00
2023-04-27T00:26:59.408Z,4.10
2023-04-27T00:27:13.380Z,4.03
2023-04-27T00:27:25.481Z,3.60
2023-04-27T00:27:37.665Z,3.50
2023-04-27T00:27:49.673Z,3.72
2023-04-27T00:28:01.698Z,3.65
2023-04-27T00:28:13.579Z,3.70
2023-04-27T00:28:25.502Z,3.70
2023-04-27T00:28:37.415Z,3.80
2023-04-27T00:28:49.335Z,3.85
2023-04-27T00:29:01.259Z,3.75
2023-04-27T00:29:13.465Z,3.70
2023-04-27T00:29:25.633Z,3.75
2023-04-27T00:29:37.615Z,3.67
2023-04-27T00:29:49.965Z,3.70
2023-04-27T00:30:02.010Z,3.63
2023-04-27T00:30:14.232Z,3.67
2023-04-27T00:30:26.401Z,3.63
2023-04-27T00:30:38.449Z,3.90
2023-04-27T00:30:50.632Z,3.70
2023-04-27T00:31:04.023Z,3.53
2023-04-27T00:31:16.141Z,3.42
2023-04-27T00:31:29.163Z,3.50
2023-04-27T00:31:41.137Z,3.33
2023-04-27T00:31:53.161Z,3.40
2023-04-27T00:32:05.676Z,3.67
2023-04-27T00:32:17.596Z,3.95
2023-04-27T00:32:29.578Z,3.97
2023-04-27T00:32:42.597Z,3.85
2023-04-27T00:32:54.685Z,3.58
2023-04-27T00:33:07.008Z,3.67
2023-04-27T00:33:18.937Z,3.80
2023-04-27T00:33:30.883Z,3.90
2023-04-27T00:33:42.812Z,3.92
2023-04-27T00:33:54.704Z,3.95
2023-04-27T00:34:06.730Z,3.70
2023-04-27T00:34:18.634Z,3.67
2023-04-27T00:34:30.991Z,3.60
2023-04-27T00:34:42.936Z,3.70
2023-04-27T00:34:54.866Z,4.53
2023-04-27T00:35:10.136Z,4.70
2023-04-27T00:35:22.143Z,4.03
2023-04-27T00:35:34.106Z,3.70
2023-04-27T00:35:46.122Z,3.83
2023-04-27T00:36:01.626Z,3.80
2023-04-27T00:36:13.575Z,3.90
2023-04-27T00:36:25.554Z,3.75
2023-04-27T00:36:37.545Z,3.80
2023-04-27T00:36:49.445Z,3.75
2023-04-27T00:37:01.471Z,3.75
2023-04-27T00:37:13.559Z,3.90
2023-04-27T00:37:25.522Z,3.88
2023-04-27T00:37:37.385Z,3.80
2023-04-27T00:37:49.339Z,4.00
2023-04-27T00:38:01.304Z,4.10
2023-04-27T00:38:13.314Z,3.80
2023-04-27T00:38:25.905Z,3.53
2023-04-27T00:38:37.832Z,3.58
2023-04-27T00:38:49.782Z,3.90
2023-04-27T00:39:05.254Z,3.95
2023-04-27T00:39:23.150Z,3.83
2023-04-27T00:39:37.750Z,3.78
2023-04-27T00:40:11.087Z,3.88
2023-04-27T00:40:23.083Z,3.80
2023-04-27T00:40:35.026Z,3.80
2023-04-27T00:40:47.035Z,3.72
2023-04-27T00:41:02.787Z,3.90
2023-04-27T00:41:14.739Z,3.80
2023-04-27T00:41:26.652Z,3.53
2023-04-27T00:41:41.756Z,3.58
2023-04-27T00:41:53.714Z,3.30
2023-04-27T00:42:06.372Z,3.17
2023-04-27T00:42:19.687Z,3.47
2023-04-27T00:42:31.646Z,3.63
2023-04-27T00:42:43.585Z,3.50
2023-04-27T00:42:55.531Z,3.60
2023-04-27T00:43:07.460Z,3.40
2023-04-27T00:43:19.365Z,3.60
2023-04-27T00:43:32.461Z,3.40
2023-04-27T00:43:46.116Z,3.42
2023-04-27T00:43:58.162Z,3.47
2023-04-27T00:44:10.032Z,3.33
2023-04-27T00:44:23.551Z,3.20
2023-04-27T00:44:35.932Z,3.25
2023-04-27T00:44:48.062Z,3.70
2023-04-27T00:45:00.056Z,3.80
2023-04-27T00:45:14.749Z,3.75
2023-04-27T00:45:26.742Z,4.00
2023-04-27T00:45:42.991Z,4.03
2023-04-27T00:45:55.075Z,4.07
2023-04-27T00:46:07.472Z,4.07
2023-04-27T00:46:19.809Z,4.20
2023-04-27T00:46:33.309Z,3.90
2023-04-27T00:46:45.332Z,3.85
2023-04-27T00:46:58.519Z,3.80
2023-04-27T00:47:11.360Z,3.80
2023-04-27T00:47:23.383Z,3.90
2023-04-27T00:47:35.456Z,4.10
2023-04-27T00:47:47.496Z,4.07
2023-04-27T00:47:59.486Z,3.95
2023-04-27T00:48:12.567Z,3.80
2023-04-27T00:48:24.679Z,3.95
2023-04-27T00:48:37.565Z,4.05
2023-04-27T00:48:49.638Z,4.05
2023-04-27T00:49:02.339Z,4.40
2023-04-27T00:49:14.604Z,4.60
2023-04-27T00:49:27.442Z,4.40
2023-04-27T00:49:40.594Z,4.40
2023-04-27T00:49:53.306Z,4.30
2023-04-27T00:50:08.527Z,4.70
2023-04-27T00:50:28.512Z,4.88
2023-04-27T00:50:40.573Z,4.75
2023-04-27T00:50:52.832Z,4.53
2023-04-27T00:51:06.015Z,3.83
2023-04-27T00:51:18.334Z,4.13
2023-04-27T00:51:31.281Z,4.20
2023-04-27T00:51:43.229Z,4.18
2023-04-27T00:51:56.200Z,4.00
2023-04-27T00:52:08.385Z,3.80
2023-04-27T00:52:20.603Z,4.05
2023-04-27T00:52:32.589Z,4.10
2023-04-27T00:52:44.512Z,3.88
2023-04-27T00:52:57.354Z,3.70
2023-04-27T00:53:09.420Z,3.80
2023-04-27T00:53:21.562Z,4.07
2023-04-27T00:53:34.422Z,4.35
2023-04-27T00:53:46.373Z,4.30
2023-04-27T00:53:58.969Z,4.20
2023-04-27T00:54:11.132Z,3.80
2023-04-27T00:54:24.294Z,3.85
2023-04-27T00:54:36.359Z,4.30
2023-04-27T00:54:52.298Z,4.43
2023-04-27T00:55:05.470Z,4.20
2023-04-27T00:55:20.091Z,4.15
2023-04-27T00:55:31.990Z,4.40
2023-04-27T00:55:43.936Z,4.30
2023-04-27T00:55:57.894Z,4.10
2023-04-27T00:56:09.836Z,3.90
2023-04-27T00:56:22.710Z,3.97
2023-04-27T00:56:34.621Z,3.78
2023-04-27T00:56:52.924Z,3.80
2023-04-27T00:57:05.214Z,3.90
2023-04-27T00:57:17.187Z,3.90
2023-04-27T00:57:29.201Z,3.53
2023-04-27T00:57:41.233Z,3.60
2023-04-27T00:57:53.213Z,3.85
2023-04-27T00:58:05.131Z,3.80
2023-04-27T00:58:17.172Z,3.97
2023-04-27T00:58:29.124Z,4.15
2023-04-27T00:58:41.023Z,3.95
2023-04-27T00:58:52.917Z,3.75
2023-04-27T00:59:04.817Z,3.90
2023-04-27T00:59:17.915Z,4.03
2023-04-27T00:59:29.885Z,4.20
2023-04-27T00:59:41.813Z,4.10
2023-04-27T00:59:53.835Z,4.25
2023-04-27T01:00:07.134Z,4.50
2023-04-27T01:00:19.132Z,4.63
2023-04-27T01:00:31.170Z,4.47
2023-04-27T01:00:43.749Z,4.10
2023-04-27T01:00:56.323Z,4.25
2023-04-27T01:01:10.293Z,4.32
2023-04-27T01:01:22.599Z,4.20
2023-04-27T01:01:34.794Z,4.13
2023-04-27T01:01:47.061Z,4.13
2023-04-27T01:01:59.743Z,4.18
2023-04-27T01:02:12.202Z,3.80
2023-04-27T01:02:24.596Z,3.70
2023-04-27T01:02:37.122Z,3.60
2023-04-27T01:02:49.563Z,3.40
2023-04-27T01:03:02.018Z,3.42
2023-04-27T01:03:14.355Z,3.65
2023-04-27T01:03:27.347Z,3.67
2023-04-27T01:03:39.542Z,3.67
2023-04-27T01:03:51.895Z,3.70
2023-04-27T01:04:04.571Z,3.97
2023-04-27T01:04:17.954Z,3.78
2023-04-27T01:04:32.229Z,3.67
2023-04-27T01:04:44.437Z,3.80
2023-04-27T01:04:56.861Z,3.60
2023-04-27T01:05:09.361Z,3.75
2023-04-27T01:05:24.326Z,3.67
2023-04-27T01:05:37.396Z,3.63
2023-04-27T01:05:49.282Z,3.58
2023-04-27T01:06:01.722Z,3.67
2023-04-27T01:06:13.834Z,3.80
2023-04-27T01:06:25.742Z,3.70
2023-04-27T01:06:39.153Z,3.70
2023-04-27T01:06:51.731Z,3.80
2023-04-27T01:07:04.315Z,4.00
2023-04-27T01:07:17.026Z,4.00
2023-04-27T01:07:29.424Z,4.00
2023-04-27T01:07:41.411Z,3.95
2023-04-27T01:07:53.376Z,3.90
2023-04-27T01:08:05.570Z,3.70
2023-04-27T01:08:17.537Z,3.78
2023-04-27T01:08:29.755Z,3.70
2023-04-27T01:08:44.598Z,3.75
2023-04-27T01:08:56.550Z,3.83
2023-04-27T01:09:09.248Z,3.95
2023-04-27T01:09:21.423Z,4.10
2023-04-27T01:09:33.304Z,4.07
2023-04-27T01:09:46.639Z,3.90
2023-04-27T01:09:58.660Z,3.70
2023-04-27T01:10:10.712Z,3.80
2023-04-27T01:10:22.806Z,3.80
2023-04-27T01:10:37.646Z,3.80
2023-04-27T01:10:49.669Z,4.00
2023-04-27T01:11:01.809Z,3.97
2023-04-27T01:11:13.842Z,3.78
2023-04-27T01:11:26.211Z,3.88
2023-04-27T01:11:38.157Z,4.15
2023-04-27T01:11:50.305Z,4.25
2023-04-27T01:12:03.417Z,4.22
2023-04-27T01:12:15.355Z,3.88
2023-04-27T01:12:27.274Z,4.03
2023-04-27T01:12:39.369Z,3.90
2023-04-27T01:12:51.337Z,4.07
2023-04-27T01:13:03.838Z,4.07
2023-04-27T01:13:15.781Z,4.15
2023-04-27T01:13:27.737Z,4.00
2023-04-27T01:13:39.799Z,3.97
2023-04-27T01:13:52.543Z,3.78
2023-04-27T01:14:06.534Z,3.65
2023-04-27T01:14:18.492Z,3.75
2023-04-27T01:14:30.531Z,3.97
2023-04-27T01:14:42.714Z,4.18
2023-04-27T01:14:54.597Z,4.22
2023-04-27T01:15:07.159Z,4.20
2023-04-27T01:15:19.041Z,3.92
2023-04-27T01:15:31.404Z,3.85
2023-04-27T01:15:43.307Z,3.70
2023-04-27T01:15:55.515Z,3.90
2023-04-27T01:16:07.475Z,4.43
2023-04-27T01:16:19.638Z,4.57
2023-04-27T01:16:32.808Z,4.47
2023-04-27T01:16:46.260Z,4.00
2023-04-27T01:16:58.452Z,3.95
2023-04-27T01:17:10.922Z,4.10
2023-04-27T01:17:23.358Z,4.15
2023-04-27T01:17:35.766Z,4.05
2023-04-27T01:17:48.801Z,4.00
2023-04-27T01:18:02.273Z,3.97
2023-04-27T01:18:14.646Z,4.10
2023-04-27T01:18:26.699Z,4.20
2023-04-27T01:18:40.722Z,3.85
2023-04-27T01:18:52.770Z,3.60
2023-04-27T01:19:05.458Z,3.50
2023-04-27T01:19:17.387Z,3.72
2023-04-27T01:19:29.348Z,3.80
2023-04-27T01:19:41.315Z,3.88
2023-04-27T01:19:55.299Z,3.95
2023-04-27T01:20:10.356Z,4.07
2023-04-27T01:20:22.693Z,4.10
2023-04-27T01:20:34.621Z,3.90
2023-04-27T01:20:46.566Z,3.80
2023-04-27T01:21:00.184Z,4.00
2023-04-27T01:21:12.249Z,3.90
2023-04-27T01:21:24.836Z,3.70
2023-04-27T01:21:36.937Z,3.70
2023-04-27T01:21:48.812Z,3.92
2023-04-27T01:22:00.810Z,4.30
2023-04-27T01:22:15.093Z,4.22
2023-04-27T01:22:27.121Z,4.03
2023-04-27T01:22:39.608Z,4.10
2023-04-27T01:22:51.542Z,3.95
2023-04-27T01:23:03.461Z,3.78
2023-04-27T01:23:17.301Z,3.90
2023-04-27T01:23:29.616Z,4.03
2023-04-27T01:23:41.521Z,4.18
2023-04-27T01:23:54.498Z,4.10
2023-04-27T01:24:07.309Z,4.22
2023-04-27T01:24:19.603Z,4.72
2023-04-27T01:24:31.536Z,4.47
2023-04-27T01:24:43.728Z,4.00
2023-04-27T01:24:55.741Z,4.20
2023-04-27T01:25:08.082Z,4.00
2023-04-27T01:25:20.137Z,4.07
2023-04-27T01:25:44.234Z,4.03
2023-04-27T01:25:56.585Z,3.55
2023-04-27T01:26:08.564Z,3.67
2023-04-27T01:26:21.237Z,3.78
2023-04-27T01:26:33.656Z,3.85
2023-04-27T01:26:45.574Z,3.97
2023-04-27T01:26:57.474Z,4.07
2023-04-27T01:27:09.420Z,4.05
2023-04-27T01:27:21.536Z,4.90
2023-04-27T01:27:33.967Z,4.97
2023-04-27T01:27:45.971Z,4.78
2023-04-27T01:27:57.858Z,4.18
2023-04-27T01:28:09.890Z,3.90
2023-04-27T01:28:21.792Z,4.03
2023-04-27T01:28:33.756Z,4.00
2023-04-27T01:28:45.813Z,4.05
2023-04-27T01:28:57.714Z,3.95
2023-04-27T01:29:09.679Z,4.03
2023-04-27T01:29:22.224Z,4.00
2023-04-27T01:29:34.170Z,3.90
2023-04-27T01:29:46.117Z,3.78
2023-04-27T01:29:57.995Z,4.03
2023-04-27T01:30:10.050Z,4.07
2023-04-27T01:30:25.253Z,4.10
2023-04-27T01:30:37.254Z,4.07
2023-04-27T01:30:49.694Z,3.97
2023-04-27T01:31:04.303Z,4.03
2023-04-27T01:31:16.473Z,4.05
2023-04-27T01:31:28.513Z,3.95
2023-04-27T01:31:40.903Z,3.83
2023-04-27T01:31:53.134Z,3.67
2023-04-27T01:32:05.680Z,3.80
2023-04-27T01:32:17.699Z,3.70
2023-04-27T01:32:29.621Z,3.72
2023-04-27T01:32:42.087Z,3.78
2023-04-27T01:32:54.341Z,3.95
2023-04-27T01:33:06.345Z,4.00
2023-04-27T01:33:18.390Z,3.95
2023-04-27T01:33:30.685Z,4.10
2023-04-27T01:33:42.756Z,4.15
2023-04-27T01:33:55.293Z,4.18
2023-04-27T01:34:07.547Z,4.03
2023-04-27T01:34:19.666Z,4.10
2023-04-27T01:34:32.096Z,4.10
2023-04-27T01:34:44.090Z,4.13
2023-04-27T01:34:56.016Z,4.10
2023-04-27T01:35:08.665Z,4.15
2023-04-27T01:35:20.872Z,3.95
2023-04-27T01:35:32.865Z,3.78
2023-04-27T01:35:44.788Z,3.85
2023-04-27T01:35:56.723Z,3.90
2023-04-27T01:36:09.299Z,4.00
2023-04-27T01:36:21.211Z,4.00
2023-04-27T01:36:33.150Z,4.20
2023-04-27T01:36:45.050Z,4.10
2023-04-27T01:36:57.121Z,4.03
2023-04-27T01:37:09.031Z,3.83
2023-04-27T01:37:21.178Z,4.00
2023-04-27T01:37:33.375Z,3.97
2023-04-27T01:37:45.511Z,4.10
2023-04-27T01:37:57.564Z,3.95
2023-04-27T01:38:09.592Z,4.00
2023-04-27T01:38:21.503Z,4.10
2023-04-27T01:38:34.312Z,4.20
2023-04-27T01:38:46.228Z,3.97
2023-04-27T01:38:58.191Z,3.80
2023-04-27T01:39:10.131Z,3.80
2023-04-27T01:39:22.105Z,4.00
2023-04-27T01:39:34.331Z,3.97
2023-04-27T01:39:46.246Z,3.75
2023-04-27T01:39:58.133Z,3.60
2023-04-27T01:40:10.570Z,3.70
2023-04-27T01:40:22.498Z,3.75
2023-04-27T01:40:34.397Z,4.00
2023-04-27T01:40:46.285Z,3.95
2023-04-27T01:41:02.992Z,4.05
2023-04-27T01:41:14.908Z,4.13
2023-04-27T01:41:26.973Z,4.03
2023-04-27T01:41:38.939Z,4.00
2023-04-27T01:41:50.868Z,4.13
2023-04-27T01:42:03.709Z,3.95
2023-04-27T01:42:15.583Z,3.70
2023-04-27T01:42:27.566Z,3.80
2023-04-27T01:42:39.487Z,4.00
2023-04-27T01:42:51.518Z,4.10
2023-04-27T01:43:03.495Z,4.05
2023-04-27T01:43:15.542Z,3.97
2023-04-27T01:43:28.217Z,3.88
2023-04-27T01:43:40.161Z,3.88
2023-04-27T01:43:52.115Z,3.80
2023-04-27T01:44:04.107Z,3.80
2023-04-27T01:44:16.180Z,3.80
2023-04-27T01:44:28.111Z,3.63
2023-04-27T01:44:40.067Z,3.75
2023-04-27T01:44:52.039Z,4.00
2023-04-27T01:45:04.413Z,4.07
2023-04-27T01:45:16.304Z,3.72
2023-04-27T01:45:28.397Z,3.63
2023-04-27T01:45:40.360Z,3.80
2023-04-27T01:45:52.313Z,3.83
2023-04-27T01:46:12.414Z,3.72
2023-04-27T01:46:24.967Z,3.72
2023-04-27T01:46:37.036Z,3.60
2023-04-27T01:46:49.161Z,3.80
2023-04-27T01:47:01.204Z,4.05
2023-04-27T01:47:15.233Z,3.90
2023-04-27T01:47:27.609Z,3.72
2023-04-27T01:47:39.974Z,3.70
2023-04-27T01:47:52.529Z,4.43
2023-04-27T01:48:04.743Z,4.60
2023-04-27T01:48:17.046Z,4.80
2023-04-27T01:48:28.955Z,4.03
2023-04-27T01:48:41.450Z,3.90
2023-04-27T01:48:53.379Z,3.78
2023-04-27T01:49:05.789Z,3.67
2023-04-27T01:49:17.707Z,3.85
2023-04-27T01:49:29.596Z,4.03
2023-04-27T01:50:11.466Z,3.90
2023-04-27T01:51:24.807Z,4.00
2023-04-27T01:51:36.728Z,3.97
2023-04-27T01:51:48.683Z,3.70
2023-04-27T01:52:00.801Z,3.58
2023-04-27T01:52:12.716Z,3.50
2023-04-27T01:52:54.077Z,3.72
2023-04-27T01:53:35.228Z,3.75
2023-04-27T01:54:16.516Z,3.72
2023-04-27T01:54:28.878Z,3.55
2023-04-27T01:54:41.077Z,3.40
2023-04-27T01:55:22.671Z,3.70
2023-04-27T01:55:34.631Z,3.58
2023-04-27T01:55:46.583Z,3.43
2023-04-27T01:55:59.681Z,3.40
2023-04-27T01:58:08.896Z,3.78
2023-04-27T01:58:20.824Z,3.95
2023-04-27T01:58:32.751Z,3.92
2023-04-27T01:58:44.702Z,3.80
2023-04-27T01:58:56.670Z,3.63
2023-04-27T02:00:08.206Z,3.88
2023-04-27T02:00:20.132Z,4.00
2023-04-27T02:00:32.180Z,3.78
2023-04-27T02:00:44.088Z,3.67
2023-04-27T02:00:56.091Z,3.70
2023-04-27T02:01:08.044Z,3.80
2023-04-27T02:01:20.176Z,3.80
2023-04-27T02:01:34.689Z,3.90
2023-04-27T02:01:46.641Z,3.70
2023-04-27T02:01:58.686Z,3.45
2023-04-27T02:02:10.712Z,3.40
2023-04-27T02:02:22.833Z,3.50
2023-04-27T02:02:34.971Z,3.50
2023-04-27T02:02:47.266Z,3.65
2023-04-27T02:03:00.666Z,3.75
2023-04-27T02:03:12.882Z,3.70
2023-04-27T02:03:24.997Z,3.58
2023-04-27T02:03:37.294Z,3.50
2023-04-27T02:04:48.370Z,3.80
2023-04-27T02:05:00.416Z,3.88
2023-04-27T02:05:12.338Z,3.80
2023-04-27T02:05:24.425Z,3.60
2023-04-27T02:05:36.472Z,3.50
2023-04-27T02:05:48.455Z,3.50
2023-04-27T02:06:00.911Z,3.60
2023-04-27T02:06:45.539Z,3.78
2023-04-27T02:06:57.440Z,3.60
2023-04-27T02:07:38.654Z,3.60
2023-04-27T02:07:50.863Z,3.83
2023-04-27T02:08:02.936Z,4.00
2023-04-27T02:08:15.125Z,3.78
2023-04-27T02:09:25.409Z,3.72
2023-04-27T02:09:37.321Z,3.70
2023-04-27T02:09:49.193Z,3.50
2023-04-27T02:10:30.750Z,3.83
2023-04-27T02:10:42.732Z,3.50
2023-04-27T02:10:54.670Z,3.30
2023-04-27T02:12:06.074Z,4.05
2023-04-27T02:12:18.019Z,3.78
2023-04-27T02:12:59.476Z,3.80
2023-04-27T02:13:11.458Z,3.90
2023-04-27T02:13:53.033Z,3.90
2023-04-27T02:14:04.990Z,3.85
2023-04-27T02:14:16.948Z,3.72
2023-04-27T02:14:28.902Z,3.60
2023-04-27T02:15:39.996Z,3.75
2023-04-27T02:15:52.436Z,3.90
2023-04-27T02:16:05.171Z,3.90
2023-04-27T02:16:17.321Z,3.80
2023-04-27T02:16:29.427Z,3.53
2023-04-27T02:16:41.432Z,3.65
2023-04-27T02:16:53.443Z,3.92
2023-04-27T02:17:05.492Z,4.20
2023-04-27T02:17:17.423Z,3.83
2023-04-27T02:17:29.621Z,3.63
2023-04-27T02:18:40.714Z,3.53
2023-04-27T02:18:53.776Z,3.40
2023-04-27T02:19:35.128Z,3.63
2023-04-27T02:19:47.079Z,3.42
2023-04-27T02:19:59.011Z,3.40
2023-04-27T02:20:12.404Z,3.40
2023-04-27T02:20:24.567Z,3.38
2023-04-27T02:21:10.621Z,3.83
2023-04-27T02:21:22.952Z,3.85
2023-04-27T02:21:34.888Z,3.60
2023-04-27T02:22:16.358Z,3.80
2023-04-27T02:23:26.962Z,3.83
2023-04-27T02:23:38.924Z,3.70
2023-04-27T02:23:50.822Z,3.53
2023-04-27T02:24:02.732Z,3.35
2023-04-27T02:24:14.655Z,3.40
2023-04-27T02:24:56.041Z,3.40
2023-04-27T02:25:08.691Z,3.40
2023-04-27T02:26:22.034Z,3.60
2023-04-27T02:26:34.948Z,3.63
2023-04-27T02:26:46.901Z,3.60
2023-04-27T02:26:59.006Z,3.63
2023-04-27T02:31:29.259Z,3.80
2023-04-27T02:34:03.884Z,3.58
2023-04-27T02:35:12.574Z,3.63
2023-04-27T02:37:47.133Z,3.47
2023-04-27T02:40:21.131Z,3.50
2023-04-27T02:44:21.746Z,3.70
2023-04-27T02:49:48.571Z,3.97
2023-04-27T02:53:49.665Z,3.43
2023-04-27T02:54:57.820Z,3.72
2023-04-27T02:56:06.053Z,3.78
2023-04-27T02:58:40.652Z,3.88
2023-04-27T03:01:15.193Z,3.70
2023-04-27T03:02:23.332Z,3.78
2023-04-27T03:10:41.353Z,3.20
2023-04-27T03:11:49.577Z,3.10
2023-04-27T03:12:58.197Z,3.30
2023-04-27T03:16:58.356Z,3.30
2023-04-27T03:17:29.030Z,3.33
2023-04-27T03:17:41.110Z,3.13
2023-04-27T03:17:53.122Z,3.20
2023-04-27T03:18:06.094Z,3.40
2023-04-27T03:18:17.997Z,3.58
2023-04-27T03:18:29.957Z,3.58
2023-04-27T03:18:41.946Z,3.50
2023-04-27T03:18:53.869Z,3.35
2023-04-27T03:19:06.098Z,3.20
2023-04-27T03:19:18.040Z,3.38
2023-04-27T03:19:29.997Z,3.63
2023-04-27T03:19:41.889Z,3.60
2023-04-27T03:19:54.191Z,3.65
2023-04-27T03:20:10.116Z,3.60
2023-04-27T03:20:22.115Z,3.20
2023-04-27T03:20:34.120Z,3.33
2023-04-27T03:20:46.470Z,3.42
2023-04-27T03:21:13.924Z,3.25
2023-04-27T03:21:26.903Z,3.10
2023-04-27T03:21:38.848Z,3.42
2023-04-27T03:21:50.960Z,3.45
2023-04-27T03:22:02.923Z,3.60
2023-04-27T03:22:15.031Z,3.50
2023-04-27T03:22:26.985Z,3.40
2023-04-27T03:22:39.020Z,3.45
2023-04-27T03:22:50.984Z,3.40
2023-04-27T03:23:02.927Z,3.50
2023-04-27T03:23:14.911Z,3.30
2023-04-27T03:23:26.947Z,3.30
2023-04-27T03:23:39.634Z,3.35
2023-04-27T03:23:51.572Z,3.40
2023-04-27T03:24:03.892Z,3.50
2023-04-27T03:24:16.489Z,3.38
2023-04-27T03:24:28.583Z,3.30
2023-04-27T03:24:40.713Z,3.22
2023-04-27T03:24:52.624Z,3.22
2023-04-27T03:25:05.417Z,3.37
2023-04-27T03:25:17.374Z,3.30
2023-04-27T03:25:29.360Z,3.42
2023-04-27T03:25:41.294Z,3.50
2023-04-27T03:25:53.388Z,3.33
2023-04-27T03:26:13.516Z,3.42
2023-04-27T03:26:26.372Z,3.50
2023-04-27T03:26:38.352Z,3.20
2023-04-27T03:26:51.128Z,3.25
2023-04-27T03:27:03.016Z,3.22
2023-04-27T03:27:14.958Z,3.40
2023-04-27T03:27:26.876Z,3.55
2023-04-27T03:27:38.788Z,3.45
2023-04-27T03:27:50.875Z,3.30
2023-04-27T03:28:02.983Z,3.30
2023-04-27T03:28:14.865Z,3.33
2023-04-27T03:28:26.791Z,3.33
2023-04-27T03:28:39.213Z,3.33
2023-04-27T03:28:51.155Z,3.42
2023-04-27T03:29:03.073Z,3.30
2023-04-27T03:29:15.190Z,3.47
2023-04-27T03:29:27.255Z,3.20
2023-04-27T03:29:40.460Z,3.20
2023-04-27T03:29:55.345Z,3.22
2023-04-27T03:30:07.928Z,3.30
2023-04-27T03:30:19.911Z,3.33
2023-04-27T03:30:31.889Z,3.22
2023-04-27T03:30:43.842Z,3.40
2023-04-27T03:31:33.282Z,3.55
2023-04-27T03:32:22.668Z,3.35
2023-04-27T03:33:30.978Z,2.88
2023-04-27T03:34:01.681Z,3.17
2023-04-27T03:34:51.061Z,3.25
2023-04-27T03:35:21.567Z,3.30
2023-04-27T03:35:51.876Z,3.30
2023-04-27T03:36:05.191Z,3.28
2023-04-27T03:36:54.565Z,3.20
2023-04-27T03:37:44.058Z,3.22
2023-04-27T03:38:33.407Z,3.20
2023-04-27T03:39:41.466Z,3.30
2023-04-27T03:40:31.123Z,3.20
2023-04-27T03:41:20.677Z,3.30
2023-04-27T03:42:10.425Z,3.50
2023-04-27T03:42:41.179Z,3.20
2023-04-27T03:43:49.290Z,3.22
2023-04-27T03:44:38.607Z,3.20
2023-04-27T03:45:10.300Z,3.33
2023-04-27T03:46:00.002Z,3.47
2023-04-27T03:46:49.680Z,3.53
2023-04-27T03:47:01.905Z,3.15
2023-04-27T03:47:51.301Z,3.15
2023-04-27T03:48:21.987Z,3.03
2023-04-27T03:48:34.042Z,3.22
2023-04-27T03:49:04.450Z,3.03
2023-04-27T03:49:36.031Z,3.20
2023-04-27T03:50:07.189Z,3.60
2023-04-27T03:50:19.455Z,3.20
2023-04-27T03:50:49.803Z,3.00
2023-04-27T03:51:01.938Z,3.17
2023-04-27T03:51:14.909Z,3.25
2023-04-27T03:51:27.055Z,3.22
2023-04-27T03:52:16.689Z,3.38
2023-04-27T03:53:06.067Z,3.35
2023-04-27T03:53:55.653Z,3.00
2023-04-27T03:54:26.355Z,3.22
2023-04-27T03:55:15.715Z,2.88
2023-04-27T03:56:05.122Z,2.67
2023-04-27T03:56:35.429Z,3.40
2023-04-27T03:57:06.402Z,3.20
2023-04-27T03:57:55.971Z,2.85
2023-04-27T03:58:46.736Z,3.05
2023-04-27T03:59:17.345Z,3.80
2023-04-27T04:00:12.820Z,3.30
2023-04-27T04:01:01.856Z,2.90
2023-04-27T04:01:33.448Z,3.10
2023-04-27T04:02:23.062Z,3.60
2023-04-27T04:02:53.596Z,3.28
2023-04-27T04:03:07.066Z,3.40
2023-04-27T04:03:37.608Z,3.33
2023-04-27T04:03:53.500Z,3.30
2023-04-27T04:04:43.069Z,3.25
2023-04-27T04:05:13.543Z,3.17
2023-04-27T04:06:06.151Z,3.25
2023-04-27T04:06:37.284Z,3.30
2023-04-27T04:07:07.477Z,3.20
2023-04-27T04:08:15.592Z,3.10
2023-04-27T04:09:24.141Z,3.20
2023-04-27T04:10:32.542Z,3.25
2023-04-27T04:11:03.782Z,3.13
2023-04-27T04:11:34.184Z,3.13
2023-04-27T04:12:23.385Z,3.50
2023-04-27T04:13:12.659Z,2.90
2023-04-27T04:13:44.041Z,3.20
2023-04-27T04:14:14.175Z,2.83
2023-04-27T04:14:46.401Z,3.20
2023-04-27T04:15:17.514Z,2.78
2023-04-27T04:16:06.871Z,2.80
2023-04-27T04:16:37.511Z,2.65
2023-04-27T04:17:26.990Z,2.80
2023-04-27T04:18:16.606Z,3.25
2023-04-27T04:19:06.121Z,2.78
2023-04-27T04:19:36.666Z,2.80
2023-04-27T04:20:10.805Z,2.90
2023-04-27T04:21:00.307Z,2.83
2023-04-27T04:21:31.943Z,3.00
2023-04-27T04:22:02.450Z,2.95
2023-04-27T04:22:14.384Z,3.38
2023-04-27T04:22:26.337Z,3.17
2023-04-27T04:22:57.042Z,3.10
2023-04-27T04:23:27.895Z,3.10
2023-04-27T04:24:19.606Z,3.20
2023-04-27T04:25:27.893Z,2.90
2023-04-27T04:26:17.263Z,2.72
2023-04-27T04:26:30.652Z,3.10
2023-04-27T04:27:00.985Z,2.78
2023-04-27T04:27:32.235Z,2.90
2023-04-27T04:28:21.530Z,3.00
2023-04-27T04:29:29.917Z,3.15
2023-04-27T04:30:00.275Z,2.90
2023-04-27T04:30:49.792Z,2.95
2023-04-27T04:31:21.526Z,3.20
2023-04-27T04:32:11.085Z,3.03